createdAt,value
2018-10-18T00:00:28.157Z,30.37
2018-10-18T00:02:56.828Z,29.87
2018-10-18T00:05:25.549Z,28.03
2018-10-18T00:07:54.973Z,26.50
2018-10-18T00:10:23.665Z,24.63
2018-10-18T00:12:52.517Z,26.03
2018-10-18T00:15:21.249Z,26.00
2018-10-18T00:17:49.981Z,27.43
2018-10-18T00:20:18.710Z,33.00
2018-10-18T00:22:47.539Z,34.37
2018-10-18T00:25:16.737Z,33.70
2018-10-18T00:27:45.487Z,34.00
2018-10-18T00:30:15.091Z,35.17
2018-10-18T00:32:44.407Z,36.97
2018-10-18T00:35:13.411Z,34.33
2018-10-18T00:37:42.092Z,33.53
2018-10-18T00:40:12.094Z,31.47
2018-10-18T00:42:41.169Z,35.93
2018-10-18T00:45:10.609Z,34.40
2018-10-18T00:47:39.308Z,32.87
2018-10-18T00:50:09.774Z,33.53
2018-10-18T00:52:38.486Z,32.20
2018-10-18T00:55:08.119Z,31.07
2018-10-18T00:57:36.781Z,31.07
2018-10-18T01:00:06.468Z,27.77
2018-10-18T01:02:35.178Z,28.70
2018-10-18T01:05:03.948Z,25.97
2018-10-18T01:07:32.626Z,26.20
2018-10-18T01:10:01.376Z,25.33
2018-10-18T01:12:30.131Z,23.67
2018-10-18T01:14:58.748Z,23.33
2018-10-18T01:17:27.425Z,23.23
2018-10-18T01:19:56.158Z,23.23
2018-10-18T01:22:24.856Z,23.70
2018-10-18T01:24:53.606Z,22.60
2018-10-18T01:27:22.305Z,22.07
2018-10-18T01:29:51.401Z,22.23
2018-10-18T01:32:20.057Z,22.97
2018-10-18T01:34:48.760Z,23.73
2018-10-18T01:37:17.447Z,23.33
2018-10-18T01:39:46.097Z,22.53
2018-10-18T01:42:14.931Z,23.00
2018-10-18T01:44:43.575Z,22.47
2018-10-18T01:47:12.250Z,20.70
2018-10-18T01:49:40.887Z,19.97
2018-10-18T01:52:09.565Z,21.23
2018-10-18T01:54:38.248Z,21.60
2018-10-18T01:57:06.968Z,23.00
2018-10-18T01:59:35.635Z,19.50
2018-10-18T02:02:04.451Z,22.83
2018-10-18T02:04:33.102Z,22.00
2018-10-18T02:07:01.818Z,20.43
2018-10-18T02:09:30.508Z,20.03
2018-10-18T02:11:59.250Z,20.00
2018-10-18T02:14:27.966Z,19.97
2018-10-18T02:16:56.711Z,21.67
2018-10-18T02:19:25.453Z,20.63
2018-10-18T02:21:54.086Z,21.50
2018-10-18T02:24:22.772Z,22.17
2018-10-18T02:26:51.559Z,22.07
2018-10-18T02:29:20.293Z,21.03
2018-10-18T02:31:48.963Z,22.83
2018-10-18T02:34:17.648Z,21.90
2018-10-18T02:36:46.319Z,21.47
2018-10-18T02:39:14.998Z,23.57
2018-10-18T02:41:43.680Z,22.03
2018-10-18T02:44:12.355Z,22.20
2018-10-18T02:46:40.997Z,22.90
2018-10-18T02:49:09.719Z,22.77
2018-10-18T02:51:38.421Z,21.63
2018-10-18T02:54:07.246Z,21.17
2018-10-18T02:56:35.915Z,22.10
2018-10-18T02:59:05.016Z,21.27
2018-10-18T03:01:33.864Z,19.93
2018-10-18T03:04:02.522Z,17.87
2018-10-18T03:06:31.168Z,18.40
2018-10-18T03:08:59.884Z,18.07
2018-10-18T03:11:28.585Z,15.80
2018-10-18T03:13:57.238Z,16.97
2018-10-18T03:16:25.995Z,16.70
2018-10-18T03:18:54.664Z,17.27
2018-10-18T03:21:23.366Z,17.23
2018-10-18T03:23:52.081Z,17.00
2018-10-18T03:26:20.747Z,17.60
2018-10-18T03:28:49.449Z,16.73
2018-10-18T03:31:18.211Z,16.97
2018-10-18T03:33:46.887Z,17.60
2018-10-18T03:36:16.185Z,18.20
2018-10-18T03:38:44.892Z,18.73
2018-10-18T03:41:13.610Z,20.57
2018-10-18T03:43:42.375Z,18.53
2018-10-18T03:46:10.994Z,20.20
2018-10-18T03:48:39.741Z,20.60
2018-10-18T03:51:08.444Z,21.27
2018-10-18T03:53:37.081Z,20.03
2018-10-18T03:56:06.028Z,21.30
2018-10-18T03:58:34.698Z,21.63
2018-10-18T04:01:03.438Z,20.53
2018-10-18T04:03:32.177Z,19.33
2018-10-18T04:06:00.921Z,17.87
2018-10-18T04:08:29.581Z,18.63
2018-10-18T04:10:58.258Z,17.67
2018-10-18T04:13:26.985Z,18.93
2018-10-18T04:15:55.677Z,17.57
2018-10-18T04:18:24.408Z,19.00
2018-10-18T04:20:53.173Z,18.57
2018-10-18T04:23:26.844Z,18.27
2018-10-18T04:25:55.512Z,19.53
2018-10-18T04:28:24.174Z,18.30
2018-10-18T04:30:52.871Z,19.50
2018-10-18T04:33:21.603Z,17.47
2018-10-18T04:35:50.424Z,17.87
2018-10-18T04:38:19.185Z,18.33
2018-10-18T04:40:48.034Z,18.40
2018-10-18T04:43:16.857Z,19.37
2018-10-18T04:45:45.528Z,20.47
2018-10-18T04:48:14.597Z,21.53
2018-10-18T04:50:44.170Z,20.60
2018-10-18T04:53:12.922Z,21.57
2018-10-18T04:55:41.575Z,21.73
2018-10-18T04:58:10.232Z,20.53
2018-10-18T05:00:38.975Z,20.20
2018-10-18T05:03:07.732Z,20.67
2018-10-18T05:05:48.299Z,19.90
2018-10-18T05:08:17.048Z,18.70
2018-10-18T05:10:45.775Z,20.70
2018-10-18T05:13:14.516Z,18.60
2018-10-18T05:15:43.137Z,17.33
2018-10-18T05:18:11.865Z,17.23
2018-10-18T05:20:40.583Z,16.73
2018-10-18T05:23:09.660Z,16.70
2018-10-18T05:25:38.434Z,15.57
2018-10-18T05:28:07.180Z,14.80
2018-10-18T05:30:35.907Z,15.80
2018-10-18T05:33:04.692Z,16.47
2018-10-18T05:35:33.408Z,14.67
2018-10-18T05:38:02.161Z,15.37
2018-10-18T05:40:30.884Z,14.17
2018-10-18T05:42:59.607Z,14.57
2018-10-18T05:45:28.265Z,15.23
2018-10-18T05:47:56.970Z,14.87
2018-10-18T05:50:25.676Z,15.83
2018-10-18T05:52:54.318Z,15.40
2018-10-18T05:55:23.015Z,15.60
2018-10-18T05:57:51.723Z,15.20
2018-10-18T06:00:20.579Z,13.73
2018-10-18T06:02:49.529Z,15.83
2018-10-18T06:05:18.788Z,16.73
2018-10-18T06:07:47.621Z,17.07
2018-10-18T06:10:28.053Z,14.57
2018-10-18T06:12:56.891Z,16.50
2018-10-18T06:15:25.531Z,15.40
2018-10-18T06:17:54.379Z,16.23
2018-10-18T06:20:23.180Z,18.63
2018-10-18T06:22:52.020Z,16.60
2018-10-18T06:25:20.764Z,18.00
2018-10-18T06:27:49.476Z,17.60
2018-10-18T06:30:18.430Z,17.67
2018-10-18T06:32:47.152Z,20.13
2018-10-18T06:35:16.549Z,18.27
2018-10-18T06:37:45.270Z,18.70
2018-10-18T06:40:15.275Z,18.00
2018-10-18T06:42:43.980Z,17.97
2018-10-18T06:45:17.022Z,17.10
2018-10-18T06:47:45.973Z,16.93
2018-10-18T06:50:15.920Z,18.17
2018-10-18T06:52:44.707Z,17.40
2018-10-18T06:55:13.516Z,18.63
2018-10-18T06:57:42.810Z,18.93
2018-10-18T07:00:22.609Z,17.80
2018-10-18T07:02:51.578Z,17.67
2018-10-18T07:05:20.340Z,17.10
2018-10-18T07:07:49.056Z,17.03
2018-10-18T07:10:17.840Z,15.43
2018-10-18T07:12:46.566Z,15.23
2018-10-18T07:15:15.782Z,14.30
2018-10-18T07:17:44.783Z,15.53
2018-10-18T07:20:14.100Z,16.20
2018-10-18T07:22:42.983Z,14.23
2018-10-18T07:25:13.929Z,14.63
2018-10-18T07:27:43.005Z,15.07
2018-10-18T07:30:13.235Z,15.87
2018-10-18T07:32:42.136Z,16.73
2018-10-18T07:35:11.881Z,14.80
2018-10-18T07:37:40.575Z,15.57
2018-10-18T07:40:11.453Z,15.57
2018-10-18T07:42:40.290Z,16.50
2018-10-18T07:45:09.878Z,20.10
2018-10-18T07:47:38.642Z,18.50
2018-10-18T07:50:07.716Z,19.33
2018-10-18T07:52:36.759Z,18.07
2018-10-18T07:55:06.358Z,15.70
2018-10-18T07:57:35.183Z,15.83
2018-10-18T08:00:04.299Z,15.30
2018-10-18T08:02:32.925Z,15.40
2018-10-18T08:05:01.655Z,16.70
2018-10-18T08:07:30.435Z,15.17
2018-10-18T08:09:59.161Z,15.33
2018-10-18T08:12:27.922Z,14.10
2018-10-18T08:14:56.702Z,14.47
2018-10-18T08:17:25.533Z,14.93
2018-10-18T08:19:54.275Z,14.20
2018-10-18T08:22:23.049Z,20.47
2018-10-18T08:24:51.755Z,23.53
2018-10-18T08:27:20.417Z,23.03
2018-10-18T08:29:49.137Z,22.23
2018-10-18T08:32:17.827Z,21.30
2018-10-18T08:34:46.613Z,17.93
2018-10-18T08:37:15.406Z,15.97
2018-10-18T08:39:44.032Z,17.13
2018-10-18T08:42:13.994Z,16.80
2018-10-18T08:44:44.124Z,15.90
2018-10-18T08:47:12.847Z,18.20
2018-10-18T08:49:41.638Z,19.40
2018-10-18T08:52:10.333Z,20.30
2018-10-18T08:54:39.040Z,21.40
2018-10-18T08:57:07.759Z,31.53
2018-10-18T08:59:36.619Z,19.87
2018-10-18T09:02:05.710Z,29.97
2018-10-18T09:04:34.906Z,19.17
2018-10-18T09:07:03.570Z,18.00
2018-10-18T09:09:32.284Z,14.67
2018-10-18T09:12:00.996Z,12.57
2018-10-18T09:14:29.925Z,12.87
2018-10-18T09:16:58.660Z,5.77
2018-10-18T09:19:27.401Z,10.43
2018-10-18T09:21:56.098Z,13.43
2018-10-18T09:24:24.845Z,12.00
2018-10-18T09:26:53.536Z,13.90
2018-10-18T09:29:22.248Z,12.57
2018-10-18T09:31:50.894Z,13.00
2018-10-18T09:34:25.978Z,12.30
2018-10-18T09:36:54.814Z,12.13
2018-10-18T09:39:23.513Z,12.97
2018-10-18T09:41:52.213Z,12.78
2018-10-18T09:44:20.929Z,15.40
2018-10-18T09:46:49.583Z,17.20
2018-10-18T09:49:18.355Z,16.80
2018-10-18T09:51:47.030Z,16.50
2018-10-18T09:54:15.715Z,15.67
2018-10-18T09:56:44.411Z,13.47
2018-10-18T09:59:13.207Z,14.63
2018-10-18T10:01:52.121Z,14.17
2018-10-18T10:04:21.066Z,14.63
2018-10-18T10:06:49.742Z,14.13
2018-10-18T10:09:18.501Z,15.53
2018-10-18T10:11:47.276Z,15.93
2018-10-18T10:14:15.917Z,13.20
2018-10-18T10:16:44.640Z,15.77
2018-10-18T10:19:13.412Z,16.90
2018-10-18T10:21:42.118Z,16.67
2018-10-18T10:24:10.890Z,17.63
2018-10-18T10:26:39.556Z,18.87
2018-10-18T10:29:08.361Z,20.50
2018-10-18T10:31:37.036Z,19.93
2018-10-18T10:34:05.842Z,20.07
2018-10-18T10:36:34.517Z,18.03
2018-10-18T10:39:03.379Z,17.60
2018-10-18T10:41:32.013Z,16.67
2018-10-18T10:44:00.778Z,17.80
2018-10-18T10:46:29.515Z,15.98
2018-10-18T10:48:58.410Z,15.15
2018-10-18T10:51:27.130Z,16.10
2018-10-18T10:53:55.863Z,13.70
2018-10-18T10:56:24.556Z,16.27
2018-10-18T10:58:53.301Z,17.50
2018-10-18T11:01:23.205Z,19.13
2018-10-18T11:03:53.858Z,19.80
2018-10-18T11:06:23.011Z,19.23
2018-10-18T11:08:51.818Z,17.97
2018-10-18T11:11:21.063Z,16.53
2018-10-18T11:13:49.923Z,17.07
2018-10-18T11:16:18.668Z,19.50
2018-10-18T11:18:47.448Z,18.97
2018-10-18T11:21:17.528Z,19.27
2018-10-18T11:23:46.207Z,18.30
2018-10-18T11:26:14.960Z,19.23
2018-10-18T11:28:43.666Z,19.40
2018-10-18T11:31:12.405Z,18.67
2018-10-18T11:33:41.190Z,18.60
2018-10-18T11:36:09.875Z,20.60
2018-10-18T11:38:38.595Z,19.43
2018-10-18T11:41:07.340Z,19.27
2018-10-18T11:43:36.117Z,15.13
2018-10-18T11:46:05.535Z,15.83
2018-10-18T11:48:34.231Z,16.10
2018-10-18T11:51:03.123Z,15.97
2018-10-18T11:53:31.863Z,15.17
2018-10-18T11:56:00.699Z,15.57
2018-10-18T11:58:29.489Z,14.70
2018-10-18T12:00:58.275Z,14.97
2018-10-18T12:03:26.975Z,13.80
2018-10-18T12:05:55.704Z,14.13
2018-10-18T12:08:24.431Z,13.23
2018-10-18T12:10:53.142Z,12.67
2018-10-18T12:13:21.933Z,12.63
2018-10-18T12:15:50.621Z,13.10
2018-10-18T12:18:19.377Z,13.33
2018-10-18T12:20:48.054Z,11.63
2018-10-18T12:23:16.791Z,11.20
2018-10-18T12:25:45.477Z,10.47
2018-10-18T12:28:14.223Z,11.87
2018-10-18T12:30:42.952Z,10.90
2018-10-18T12:33:11.686Z,10.73
2018-10-18T12:35:40.454Z,10.50
2018-10-18T12:38:09.304Z,11.80
2018-10-18T12:40:37.958Z,11.63
2018-10-18T12:43:06.700Z,12.07
2018-10-18T12:45:35.447Z,12.60
2018-10-18T12:48:04.234Z,12.03
2018-10-18T12:50:32.951Z,13.30
2018-10-18T12:53:01.697Z,13.57
2018-10-18T12:55:30.476Z,13.07
2018-10-18T12:57:59.251Z,12.77
2018-10-18T13:00:27.979Z,12.10
2018-10-18T13:02:56.686Z,13.37
2018-10-18T13:05:25.480Z,12.77
2018-10-18T13:07:54.255Z,13.13
2018-10-18T13:10:23.044Z,12.70
2018-10-18T13:12:51.761Z,12.93
2018-10-18T13:15:20.483Z,12.93
2018-10-18T13:17:49.201Z,12.97
2018-10-18T13:20:17.982Z,13.23
2018-10-18T13:22:46.680Z,12.27
2018-10-18T13:25:15.464Z,12.47
2018-10-18T13:27:44.156Z,13.00
2018-10-18T13:30:12.982Z,13.67
2018-10-18T13:32:41.751Z,13.43
2018-10-18T13:35:11.100Z,14.60
2018-10-18T13:37:39.837Z,8.63
2018-10-18T13:40:08.947Z,6.73
2018-10-18T13:42:37.869Z,8.17
2018-10-18T13:45:07.109Z,6.00
2018-10-18T13:47:36.073Z,6.17
2018-10-18T13:50:05.111Z,6.63
2018-10-18T13:52:33.827Z,6.57
2018-10-18T13:55:02.557Z,6.50
2018-10-18T13:57:31.311Z,6.53
2018-10-18T14:00:16.101Z,6.43
2018-10-18T14:02:44.801Z,6.37
2018-10-18T14:05:13.775Z,6.53
2018-10-18T14:07:42.474Z,6.50
2018-10-18T14:10:11.386Z,6.37
2018-10-18T14:12:40.178Z,7.10
2018-10-18T14:15:09.074Z,6.33
2018-10-18T14:17:38.082Z,6.80
2018-10-18T14:20:07.156Z,6.80
2018-10-18T14:22:35.892Z,7.10
2018-10-18T14:25:04.739Z,6.87
2018-10-18T14:27:33.456Z,6.60
2018-10-18T14:30:02.327Z,6.93
2018-10-18T14:32:31.003Z,8.37
2018-10-18T14:34:59.719Z,7.27
2018-10-18T14:37:29.335Z,6.47
2018-10-18T14:39:58.117Z,6.90
2018-10-18T14:42:26.811Z,7.10
2018-10-18T14:44:55.539Z,6.37
2018-10-18T14:47:24.418Z,7.27
2018-10-18T14:49:53.103Z,7.33
2018-10-18T14:52:21.897Z,7.37
2018-10-18T14:54:50.525Z,6.70
2018-10-18T14:57:19.252Z,6.93
2018-10-18T14:59:47.932Z,6.37
2018-10-18T15:02:16.687Z,7.20
2018-10-18T15:04:45.365Z,6.53
2018-10-18T15:07:14.045Z,7.17
2018-10-18T15:09:42.744Z,6.73
2018-10-18T15:12:11.435Z,6.73
2018-10-18T15:14:40.144Z,6.73
2018-10-18T15:17:08.959Z,6.60
2018-10-18T15:19:37.652Z,6.77
2018-10-18T15:22:06.564Z,6.00
2018-10-18T15:24:35.305Z,5.70
2018-10-18T15:27:04.182Z,7.27
2018-10-18T15:29:32.813Z,16.97
2018-10-18T15:32:01.707Z,6.10
2018-10-18T15:34:30.382Z,6.73
2018-10-18T15:36:59.194Z,6.73
2018-10-18T15:39:28.007Z,20.47
2018-10-18T15:41:56.720Z,8.20
2018-10-18T15:44:25.543Z,6.67
2018-10-18T15:46:54.257Z,6.00
2018-10-18T15:49:22.907Z,6.40
2018-10-18T15:51:51.675Z,6.63
2018-10-18T15:54:20.593Z,6.20
2018-10-18T15:56:49.115Z,6.67
2018-10-18T15:59:17.916Z,7.13
2018-10-18T16:01:46.620Z,7.77
2018-10-18T16:04:15.325Z,7.23
2018-10-18T16:06:44.059Z,7.40
2018-10-18T16:09:13.911Z,7.03
2018-10-18T16:11:42.743Z,6.97
2018-10-18T16:14:11.609Z,7.00
2018-10-18T16:16:40.314Z,6.60
2018-10-18T16:19:09.046Z,7.07
2018-10-18T16:21:37.801Z,7.77
2018-10-18T16:24:06.645Z,7.67
2018-10-18T16:26:41.747Z,7.77
2018-10-18T16:29:10.471Z,7.53
2018-10-18T16:31:39.263Z,7.80
2018-10-18T16:34:08.012Z,8.50
2018-10-18T16:36:36.788Z,7.90
2018-10-18T16:39:08.303Z,8.40
2018-10-18T16:41:37.412Z,7.60
2018-10-18T16:44:06.468Z,8.03
2018-10-18T16:46:35.207Z,7.43
2018-10-18T16:49:03.980Z,7.47
2018-10-18T16:51:32.740Z,8.77
2018-10-18T16:54:01.639Z,7.10
2018-10-18T16:56:30.366Z,7.00
2018-10-18T16:58:59.125Z,7.00
2018-10-18T17:01:27.982Z,7.20
2018-10-18T17:03:56.710Z,7.60
2018-10-18T17:06:25.616Z,7.13
2018-10-18T17:08:54.246Z,6.23
2018-10-18T17:11:23.013Z,6.07
2018-10-18T17:13:51.873Z,5.53
2018-10-18T17:16:20.723Z,5.90
2018-10-18T17:18:49.433Z,6.17
2018-10-18T17:21:18.153Z,6.03
2018-10-18T17:23:46.847Z,5.37
2018-10-18T17:26:15.811Z,6.20
2018-10-18T17:28:44.406Z,6.03
2018-10-18T17:31:13.134Z,5.53
2018-10-18T17:33:41.873Z,6.70
2018-10-18T17:36:10.636Z,6.43
2018-10-18T17:38:39.338Z,7.57
2018-10-18T17:41:08.060Z,6.93
2018-10-18T17:43:36.771Z,6.80
2018-10-18T17:46:05.894Z,6.97
2018-10-18T17:48:34.567Z,6.60
2018-10-18T17:51:03.299Z,7.20
2018-10-18T17:53:32.029Z,6.80
2018-10-18T17:56:00.941Z,5.83
2018-10-18T17:58:29.591Z,9.27
2018-10-18T18:00:58.339Z,6.57
2018-10-18T18:03:27.151Z,6.87
2018-10-18T18:05:55.977Z,6.83
2018-10-18T18:08:24.628Z,6.63
2018-10-18T18:10:53.292Z,7.47
2018-10-18T18:13:21.998Z,7.17
2018-10-18T18:15:50.785Z,7.40
2018-10-18T18:18:19.527Z,7.20
2018-10-18T18:20:48.316Z,7.07
2018-10-18T18:23:17.061Z,7.10
2018-10-18T18:25:45.830Z,6.97
2018-10-18T18:28:14.519Z,7.67
2018-10-18T18:30:43.198Z,6.80
2018-10-18T18:33:11.965Z,7.13
2018-10-18T18:35:40.644Z,6.97
2018-10-18T18:38:09.308Z,6.87
2018-10-18T18:40:37.995Z,6.90
2018-10-18T18:43:06.676Z,6.87
2018-10-18T18:45:36.500Z,6.90
2018-10-18T18:48:05.717Z,6.60
2018-10-18T18:50:34.550Z,6.73
2018-10-18T18:53:03.358Z,7.23
2018-10-18T18:55:31.965Z,14.77
2018-10-18T18:58:00.720Z,33.07
2018-10-18T19:00:29.460Z,7.30
2018-10-18T19:02:58.139Z,7.67
2018-10-18T19:05:26.768Z,6.93
2018-10-18T19:07:55.530Z,7.50
2018-10-18T19:10:24.275Z,7.60
2018-10-18T19:12:52.930Z,7.60
2018-10-18T19:15:21.567Z,7.10
2018-10-18T19:17:50.230Z,8.03
2018-10-18T19:20:18.912Z,8.00
2018-10-18T19:22:47.756Z,8.03
2018-10-18T19:25:16.556Z,7.93
2018-10-18T19:27:46.269Z,7.77
2018-10-18T19:30:15.019Z,8.50
2018-10-18T19:32:43.664Z,8.17
2018-10-18T19:35:12.922Z,8.80
2018-10-18T19:37:41.582Z,8.07
2018-10-18T19:40:10.732Z,7.70
2018-10-18T19:42:39.451Z,8.00
2018-10-18T19:45:08.822Z,8.77
2018-10-18T19:47:43.856Z,16.47
2018-10-18T19:50:12.557Z,8.27
2018-10-18T19:52:41.250Z,8.57
2018-10-18T19:55:10.504Z,8.60
2018-10-18T19:57:39.265Z,8.47
2018-10-18T20:00:08.867Z,8.10
2018-10-18T20:02:37.583Z,8.80
2018-10-18T20:05:06.751Z,8.80
2018-10-18T20:07:35.510Z,8.17
2018-10-18T20:10:04.270Z,8.10
2018-10-18T20:12:33.034Z,8.30
2018-10-18T20:15:01.761Z,7.40
2018-10-18T20:17:30.466Z,7.87
2018-10-18T20:19:59.245Z,7.03
2018-10-18T20:22:27.884Z,7.00
2018-10-18T20:24:56.677Z,6.23
2018-10-18T20:27:25.296Z,5.50
2018-10-18T20:29:53.951Z,5.97
2018-10-18T20:32:22.656Z,5.57
2018-10-18T20:34:51.376Z,5.50
2018-10-18T20:37:20.075Z,5.20
2018-10-18T20:39:48.790Z,5.30
2018-10-18T20:42:17.421Z,5.30
2018-10-18T20:44:46.137Z,5.30
2018-10-18T20:47:14.865Z,6.10
2018-10-18T20:49:43.500Z,5.87
2018-10-18T20:52:12.267Z,5.97
2018-10-18T20:54:40.929Z,6.23
2018-10-18T20:57:09.646Z,6.17
2018-10-18T20:59:38.264Z,5.90
2018-10-18T21:02:07.066Z,5.70
2018-10-18T21:04:35.752Z,5.60
2018-10-18T21:07:04.876Z,5.90
2018-10-18T21:09:33.562Z,5.23
2018-10-18T21:12:02.338Z,5.47
2018-10-18T21:14:31.011Z,5.97
2018-10-18T21:16:59.702Z,5.23
2018-10-18T21:19:28.358Z,5.70
2018-10-18T21:21:57.115Z,6.13
2018-10-18T21:24:25.792Z,6.80
2018-10-18T21:26:54.628Z,6.50
2018-10-18T21:29:23.327Z,6.93
2018-10-18T21:31:52.045Z,6.17
2018-10-18T21:34:20.767Z,6.33
2018-10-18T21:36:49.416Z,6.60
2018-10-18T21:39:27.619Z,6.23
2018-10-18T21:41:56.322Z,6.13
2018-10-18T21:44:27.127Z,6.13
2018-10-18T21:46:55.839Z,6.70
2018-10-18T21:49:24.612Z,7.13
2018-10-18T21:51:53.362Z,7.20
2018-10-18T21:54:22.098Z,7.97
2018-10-18T21:56:50.807Z,7.10
2018-10-18T21:59:19.511Z,6.33
2018-10-18T22:01:48.714Z,6.80
2018-10-18T22:04:18.033Z,6.80
2018-10-18T22:06:47.713Z,5.87
2018-10-18T22:09:16.854Z,6.80
2018-10-18T22:11:45.625Z,6.30
2018-10-18T22:14:14.350Z,7.00
2018-10-18T22:16:43.064Z,6.03
2018-10-18T22:19:11.739Z,6.23
2018-10-18T22:21:40.565Z,5.77
2018-10-18T22:24:10.602Z,5.60
2018-10-18T22:26:39.360Z,5.50
2018-10-18T22:29:08.116Z,5.60
2018-10-18T22:31:36.976Z,6.50
2018-10-18T22:34:05.732Z,5.53
2018-10-18T22:36:34.394Z,5.80
2018-10-18T22:39:03.306Z,5.43
2018-10-18T22:41:31.959Z,5.83
2018-10-18T22:44:00.590Z,6.27
2018-10-18T22:46:29.295Z,5.37
2018-10-18T22:48:58.056Z,6.47
2018-10-18T22:51:26.761Z,5.80
2018-10-18T22:53:55.452Z,5.50
2018-10-18T22:56:24.191Z,6.03
2018-10-18T22:58:52.924Z,5.63
2018-10-18T23:01:21.601Z,5.33
2018-10-18T23:03:50.254Z,5.47
2018-10-18T23:06:18.928Z,5.97
2018-10-18T23:08:47.627Z,5.70
2018-10-18T23:11:16.386Z,5.70
2018-10-18T23:13:45.101Z,5.50
2018-10-18T23:16:13.785Z,6.30
2018-10-18T23:18:42.585Z,5.30
2018-10-18T23:21:11.336Z,5.73
2018-10-18T23:23:39.967Z,6.40
2018-10-18T23:26:08.676Z,5.70
2018-10-18T23:28:37.372Z,6.27
2018-10-18T23:31:06.114Z,5.93
2018-10-18T23:33:34.819Z,5.77
2018-10-18T23:36:03.765Z,5.73
2018-10-18T23:38:32.435Z,5.53
2018-10-18T23:41:01.155Z,5.40
2018-10-18T23:43:29.850Z,5.43
2018-10-18T23:45:58.496Z,5.70
2018-10-18T23:48:27.247Z,6.47
2018-10-18T23:50:55.952Z,5.93
2018-10-18T23:53:24.623Z,6.20
2018-10-18T23:55:53.346Z,6.43
2018-10-18T23:58:22.037Z,6.30
